Time;durP1;ratioP1;P1;durP2;ratioP2;P2;SDS_P1;SDS_P2;PMS_P1;PMS_P2;Temp;Humidity;BMP_temperature;BMP_pressure;BME280_temperature;BME280_humidity;BME280_pressure;Samples;Min_cycle;Max_cycle;Signal;HPM_P1;HPM_P2
2021/03/29 00:01:15;;;;;;;9.97;3.97;;;11.40;99.90;;;;;;4190763;28;20060;-70
2021/03/29 00:03:16;;;;;;;10.43;3.88;;;11.40;99.90;;;;;;4191695;28;20504;-70
2021/03/29 00:05:19;;;;;;;9.65;3.88;;;11.40;99.90;;;;;;4192208;28;20033;-70
2021/03/29 00:07:21;;;;;;;8.80;3.92;;;11.40;99.90;;;;;;4192313;28;20039;-70
2021/03/29 00:09:25;;;;;;;9.98;3.40;;;11.40;99.90;;;;;;4190385;28;20086;-70
2021/03/29 00:11:26;;;;;;;6.68;3.05;;;11.40;99.90;;;;;;4191614;28;20112;-70
2021/03/29 00:13:30;;;;;;;11.52;3.72;;;11.40;99.90;;;;;;4191962;28;20124;-70
2021/03/29 00:15:37;;;;;;;11.35;4.03;;;11.40;99.90;;;;;;4191947;28;20029;-70
2021/03/29 00:17:40;;;;;;;10.93;3.90;;;11.40;99.90;;;;;;4183844;28;20039;-70
2021/03/29 00:19:42;;;;;;;9.63;3.78;;;11.40;99.90;;;;;;4174891;28;20136;-70
2021/03/29 00:21:43;;;;;;;9.80;4.18;;;11.40;99.90;;;;;;4188883;28;20036;-70
2021/03/29 00:23:45;;;;;;;13.15;3.70;;;11.40;99.90;;;;;;4191879;28;20709;-70
2021/03/29 00:25:47;;;;;;;11.38;3.47;;;11.40;99.90;;;;;;4191330;28;20033;-70
2021/03/29 00:27:48;;;;;;;6.20;3.20;;;11.40;99.90;;;;;;4191582;28;20163;-70
2021/03/29 00:29:49;;;;;;;10.90;3.65;;;11.40;99.90;;;;;;4191891;28;20036;-70
2021/03/29 00:31:50;;;;;;;13.02;3.42;;;11.40;99.90;;;;;;4192954;28;20063;-70
2021/03/29 00:33:53;;;;;;;11.88;3.58;;;11.40;99.90;;;;;;4190272;28;20159;-70
2021/03/29 00:35:54;;;;;;;;;;;11.40;99.90;;;;;;4195929;28;20047;-69
2021/03/29 00:37:57;;;;;;;11.60;4.10;;;11.40;99.90;;;;;;4195185;28;19908;-70
2021/03/29 00:39:59;;;;;;;11.50;3.15;;;11.40;99.90;;;;;;4192926;28;20049;-70
2021/03/29 00:42:00;;;;;;;11.13;3.67;;;11.40;99.90;;;;;;4194743;28;20067;-70
2021/03/29 00:44:03;;;;;;;8.45;3.45;;;11.30;99.90;;;;;;4194175;28;20060;-70
2021/03/29 00:46:07;;;;;;;9.38;3.20;;;11.30;99.90;;;;;;4194617;28;20086;-70
2021/03/29 00:48:09;;;;;;;7.63;3.63;;;11.30;99.90;;;;;;4195010;28;20028;-70
2021/03/29 00:50:11;;;;;;;8.33;2.80;;;11.30;99.90;;;;;;4176447;28;20052;-70
2021/03/29 00:52:12;;;;;;;7.65;2.92;;;11.30;99.90;;;;;;4170432;28;20032;-70
2021/03/29 00:54:13;;;;;;;8.52;3.10;;;11.30;99.90;;;;;;4194909;28;20021;-70
2021/03/29 00:56:15;;;;;;;14.50;3.90;;;11.20;99.90;;;;;;4186510;28;20036;-70
2021/03/29 00:58:20;;;;;;;6.82;2.67;;;11.30;99.90;;;;;;4190489;28;20588;-70
2021/03/29 01:00:30;;;;;;;9.88;3.35;;;11.30;99.90;;;;;;4191434;28;20125;-70
2021/03/29 01:02:31;;;;;;;7.93;3.45;;;11.30;99.90;;;;;;4192735;28;20025;-70
2021/03/29 01:04:32;;;;;;;8.43;3.15;;;11.30;99.90;;;;;;4190915;28;20162;-70
2021/03/29 01:06:46;;;;;;;7.55;3.30;;;11.30;99.90;;;;;;4194592;28;20068;-70
2021/03/29 01:08:54;;;;;;;7.72;3.17;;;11.20;99.90;;;;;;4193419;28;20033;-70
2021/03/29 01:10:57;;;;;;;7.32;2.70;;;11.20;99.90;;;;;;4192527;28;20033;-70
2021/03/29 01:13:06;;;;;;;10.75;3.17;;;11.20;99.90;;;;;;4192659;28;20043;-70
2021/03/29 01:15:08;;;;;;;10.52;3.60;;;11.20;99.90;;;;;;4193507;28;20032;-70
2021/03/29 01:17:17;;;;;;;12.57;3.30;;;11.20;99.90;;;;;;4193278;28;20439;-70
2021/03/29 01:19:35;;;;;;;7.15;3.30;;;11.10;99.90;;;;;;4186563;28;20666;-70
2021/03/29 01:22:01;;;;;;;8.43;3.17;;;11.00;99.90;;;;;;4194845;28;20029;-70
2021/03/29 01:24:10;;;;;;;8.68;3.40;;;11.00;99.90;;;;;;4177843;28;20044;-70
2021/03/29 01:26:17;;;;;;;10.85;3.47;;;11.00;99.90;;;;;;4184537;28;20028;-70
2021/03/29 01:28:23;;;;;;;10.70;3.33;;;11.00;99.90;;;;;;4178373;28;20033;-70
2021/03/29 01:30:25;;;;;;;9.10;2.90;;;10.90;99.90;;;;;;4176350;28;20063;-70
2021/03/29 01:32:28;;;;;;;9.67;3.37;;;10.90;99.90;;;;;;4176367;28;20072;-70
2021/03/29 01:34:32;;;;;;;10.25;3.25;;;10.90;99.90;;;;;;4170448;28;20044;-70
2021/03/29 01:36:42;;;;;;;6.47;2.60;;;10.90;99.90;;;;;;4160280;28;20035;-70
2021/03/29 01:38:45;;;;;;;9.13;3.83;;;10.90;99.90;;;;;;4203463;28;20040;-70
2021/03/29 01:40:47;;;;;;;8.80;2.92;;;10.80;99.90;;;;;;4195259;28;20464;-70
2021/03/29 01:42:48;;;;;;;10.88;3.55;;;10.80;99.90;;;;;;4196931;28;20496;-70
2021/03/29 01:44:50;;;;;;;5.22;2.70;;;10.80;99.90;;;;;;4206955;28;20388;-70
2021/03/29 01:46:51;;;;;;;10.10;3.47;;;10.80;99.90;;;;;;4206850;28;20040;-70
2021/03/29 01:48:53;;;;;;;5.93;2.80;;;10.80;99.90;;;;;;4208641;28;20031;-70
2021/03/29 01:50:54;;;;;;;9.98;3.42;;;10.80;99.90;;;;;;4198858;28;20612;-70
2021/03/29 01:52:56;;;;;;;10.13;3.50;;;10.80;99.90;;;;;;4200755;28;20040;-70
2021/03/29 01:54:58;;;;;;;9.18;3.38;;;10.90;99.90;;;;;;4201578;28;20036;-70
2021/03/29 01:57:07;;;;;;;10.77;3.50;;;10.80;99.90;;;;;;4204658;28;20051;-70
2021/03/29 01:59:08;;;;;;;10.50;3.70;;;10.80;99.90;;;;;;4196210;28;20105;-70
2021/03/29 02:01:12;;;;;;;8.98;3.28;;;10.80;99.90;;;;;;4175887;28;20132;-70
2021/03/29 02:03:13;;;;;;;9.75;3.28;;;10.70;99.90;;;;;;4177405;28;20040;-70
2021/03/29 02:05:16;;;;;;;7.03;2.80;;;10.70;99.90;;;;;;4175270;28;20430;-70
2021/03/29 02:07:18;;;;;;;11.13;3.42;;;10.70;99.90;;;;;;4190154;28;20028;-70
2021/03/29 02:09:19;;;;;;;10.98;3.63;;;10.70;99.90;;;;;;4192624;28;20033;-70
2021/03/29 02:11:22;;;;;;;8.43;3.05;;;10.70;99.90;;;;;;4193622;28;20035;-70
2021/03/29 02:13:34;;;;;;;12.93;3.38;;;10.60;99.90;;;;;;4193779;28;20077;-70
2021/03/29 02:15:35;;;;;;;6.50;2.92;;;10.60;99.90;;;;;;4192937;28;20036;-70
2021/03/29 02:17:37;;;;;;;9.45;2.97;;;10.70;99.90;;;;;;4191499;28;20036;-69
2021/03/29 02:19:38;;;;;;;5.93;2.80;;;10.60;99.90;;;;;;4193285;28;20377;-70
2021/03/29 02:21:41;;;;;;;9.38;2.95;;;10.60;99.90;;;;;;4192259;28;20043;-70
2021/03/29 02:23:45;;;;;;;10.20;3.35;;;10.70;99.90;;;;;;4193029;28;20511;-70
2021/03/29 02:25:48;;;;;;;8.30;3.20;;;10.70;99.90;;;;;;4192843;28;20116;-70
2021/03/29 02:27:50;;;;;;;10.20;3.50;;;10.70;99.90;;;;;;4193875;28;20111;-70
2021/03/29 02:29:53;;;;;;;9.88;3.20;;;10.70;99.90;;;;;;4192729;28;20485;-70
2021/03/29 02:31:59;;;;;;;9.65;3.45;;;10.70;99.90;;;;;;4192345;28;20067;-70
2021/03/29 02:34:01;;;;;;;8.90;2.88;;;10.70;99.90;;;;;;4191198;28;20040;-70
2021/03/29 02:36:03;;;;;;;9.98;3.17;;;10.70;99.90;;;;;;4178783;28;20476;-70
2021/03/29 02:38:07;;;;;;;9.10;3.28;;;10.70;99.90;;;;;;4192899;28;20062;-70
2021/03/29 02:40:08;;;;;;;13.13;3.60;;;10.70;99.90;;;;;;4191740;28;20090;-70
2021/03/29 02:42:09;;;;;;;10.05;3.10;;;10.60;99.90;;;;;;4190980;28;20033;-70
2021/03/29 02:44:12;;;;;;;7.18;3.00;;;10.60;99.90;;;;;;4192642;28;20043;-70
2021/03/29 02:46:14;;;;;;;14.15;4.07;;;10.70;99.90;;;;;;4191501;28;20048;-70
2021/03/29 02:48:16;;;;;;;10.27;3.22;;;10.70;99.90;;;;;;4193063;28;20436;-70
2021/03/29 02:50:23;;;;;;;9.70;2.70;;;10.70;99.90;;;;;;4192235;28;20489;-70
2021/03/29 02:52:23;;;;;;;10.00;3.60;;;10.70;99.90;;;;;;4191079;28;20060;-70
2021/03/29 02:54:24;;;;;;;8.38;2.95;;;10.70;99.90;;;;;;4192412;28;20037;-70
2021/03/29 02:56:31;;;;;;;8.15;3.10;;;10.70;99.90;;;;;;4191019;28;20041;-70
2021/03/29 02:58:34;;;;;;;6.70;2.95;;;10.70;99.90;;;;;;4193091;28;20118;-70
2021/03/29 03:00:35;;;;;;;;;;;10.70;99.90;;;;;;4192473;28;20029;-70
2021/03/29 03:02:36;;;;;;;8.52;2.90;;;10.70;99.90;;;;;;4180979;28;19943;-69
2021/03/29 03:04:38;;;;;;;7.78;3.20;;;10.70;99.90;;;;;;4191289;28;20028;-70
2021/03/29 03:06:40;;;;;;;9.30;3.08;;;10.70;99.90;;;;;;4193085;28;20045;-70
2021/03/29 03:08:41;;;;;;;9.43;2.88;;;10.70;99.90;;;;;;4191053;28;20484;-70
2021/03/29 03:10:42;;;;;;;10.45;3.38;;;10.70;99.90;;;;;;4193424;28;20125;-70
2021/03/29 03:12:45;;;;;;;7.50;2.90;;;10.70;99.90;;;;;;4190382;28;20052;-70
2021/03/29 03:14:46;;;;;;;7.60;2.85;;;10.70;99.90;;;;;;4191552;28;20656;-70
2021/03/29 03:16:47;;;;;;;9.02;3.63;;;10.70;99.90;;;;;;4192748;28;20112;-70
2021/03/29 03:18:48;;;;;;;7.30;2.90;;;10.70;99.90;;;;;;4190274;28;20158;-70
2021/03/29 03:20:49;;;;;;;4.88;2.55;;;10.70;99.90;;;;;;4193036;28;20027;-70
2021/03/29 03:23:04;;;;;;;6.00;2.53;;;10.70;99.90;;;;;;4192057;28;20025;-70
2021/03/29 03:25:18;;;;;;;7.35;2.95;;;10.70;99.90;;;;;;4190379;28;20052;-70
2021/03/29 03:27:20;;;;;;;9.10;3.13;;;10.70;99.90;;;;;;4186733;28;20115;-70
2021/03/29 03:29:21;;;;;;;9.45;3.25;;;10.60;99.90;;;;;;4191474;28;20045;-70
2021/03/29 03:31:23;;;;;;;8.13;2.78;;;10.70;99.90;;;;;;4192808;28;20040;-70
2021/03/29 03:33:28;;;;;;;9.02;3.00;;;10.70;99.90;;;;;;4192499;28;20032;-70
2021/03/29 03:35:29;;;;;;;7.97;2.95;;;10.60;99.90;;;;;;4192290;28;20036;-70
2021/03/29 03:37:30;;;;;;;7.70;2.92;;;10.70;99.90;;;;;;4187020;28;20420;-70
2021/03/29 03:39:31;;;;;;;9.27;2.88;;;10.70;99.90;;;;;;4174826;28;20037;-70
2021/03/29 03:41:33;;;;;;;9.05;2.55;;;10.70;99.90;;;;;;4173919;28;21680;-70
2021/03/29 03:43:38;;;;;;;7.60;2.87;;;10.70;99.90;;;;;;4178293;28;20025;-70
2021/03/29 03:45:42;;;;;;;7.18;2.70;;;10.70;99.90;;;;;;4186008;28;20301;-70
2021/03/29 03:47:44;;;;;;;8.35;2.88;;;10.60;99.90;;;;;;4190361;28;20106;-70
2021/03/29 03:49:46;;;;;;;7.32;2.83;;;10.60;99.90;;;;;;4192460;28;20499;-70
2021/03/29 03:51:48;;;;;;;8.50;3.13;;;10.60;99.90;;;;;;4190372;28;20055;-70
2021/03/29 03:53:50;;;;;;;12.25;3.38;;;10.60;99.90;;;;;;4192568;28;20036;-70
2021/03/29 03:55:53;;;;;;;7.13;3.08;;;10.60;99.90;;;;;;4192275;28;20037;-70
2021/03/29 03:57:54;;;;;;;;;;;10.60;99.90;;;;;;4191330;28;20040;-70
2021/03/29 03:59:55;;;;;;;6.75;3.03;;;10.50;99.90;;;;;;4192900;28;19922;-70
2021/03/29 04:02:03;;;;;;;5.57;2.67;;;10.50;99.90;;;;;;4191372;28;20071;-69
2021/03/29 04:04:04;;;;;;;8.02;2.60;;;10.50;99.90;;;;;;4192378;28;20040;-69
2021/03/29 04:06:05;;;;;;;7.47;2.97;;;10.40;99.90;;;;;;4192494;28;20028;-69
2021/03/29 04:08:07;;;;;;;6.05;2.70;;;10.50;99.90;;;;;;4189773;28;20032;-69
2021/03/29 04:10:18;;;;;;;7.93;2.95;;;10.50;99.90;;;;;;4192135;28;20060;-70
2021/03/29 04:12:19;;;;;;;6.18;2.83;;;10.40;99.90;;;;;;4186254;28;20032;-70
2021/03/29 04:14:20;;;;;;;8.98;2.90;;;10.40;99.90;;;;;;4192228;28;20112;-70
2021/03/29 04:16:20;;;;;;;7.78;2.90;;;10.50;99.90;;;;;;4192291;28;20032;-70
2021/03/29 04:18:21;;;;;;;8.65;3.05;;;10.40;99.90;;;;;;4190157;28;20036;-70
2021/03/29 04:20:22;;;;;;;7.82;3.00;;;10.40;99.90;;;;;;4192090;28;20551;-70
2021/03/29 04:22:23;;;;;;;6.97;2.55;;;10.40;99.90;;;;;;4191984;28;20036;-70
2021/03/29 04:24:23;;;;;;;10.80;2.88;;;10.40;99.90;;;;;;4191361;28;20033;-70
2021/03/29 04:26:24;;;;;;;13.25;3.33;;;10.30;99.90;;;;;;4191862;28;20655;-70
2021/03/29 04:28:25;;;;;;;7.68;3.05;;;10.30;99.90;;;;;;4191310;28;20053;-70
2021/03/29 04:30:26;;;;;;;6.05;2.35;;;10.30;99.90;;;;;;4192413;28;20569;-70
2021/03/29 04:32:27;;;;;;;9.32;3.10;;;10.30;99.90;;;;;;4191645;28;20032;-70
2021/03/29 04:34:27;;;;;;;5.90;2.55;;;10.20;99.90;;;;;;4191464;28;20036;-70
2021/03/29 04:36:28;;;;;;;7.28;2.80;;;10.20;99.90;;;;;;4191985;28;21140;-70
2021/03/29 04:38:29;;;;;;;9.73;2.88;;;10.20;99.90;;;;;;4189945;28;20036;-70
2021/03/29 04:40:30;;;;;;;7.47;2.88;;;10.20;99.90;;;;;;4190331;28;20029;-70
2021/03/29 04:42:30;;;;;;;6.97;2.63;;;10.20;99.90;;;;;;4189166;28;20485;-70
2021/03/29 04:44:31;;;;;;;6.82;2.88;;;10.20;99.90;;;;;;4189647;28;20139;-70
2021/03/29 04:46:31;;;;;;;4.65;2.40;;;10.20;99.90;;;;;;4192122;28;20021;-70
2021/03/29 04:48:32;;;;;;;8.10;3.20;;;10.20;99.90;;;;;;4192189;28;20494;-70
2021/03/29 04:50:33;;;;;;;7.20;2.60;;;10.20;99.90;;;;;;4191586;28;20032;-70
2021/03/29 04:52:38;;;;;;;7.93;2.78;;;10.20;99.90;;;;;;4191585;28;20056;-70
2021/03/29 04:54:39;;;;;;;8.63;2.60;;;10.10;99.90;;;;;;4191646;28;20033;-70
2021/03/29 04:56:39;;;;;;;6.82;2.88;;;10.10;99.90;;;;;;4191146;28;20041;-70
2021/03/29 04:58:40;;;;;;;9.25;3.20;;;10.10;99.90;;;;;;4182095;28;20116;-70
2021/03/29 05:00:41;;;;;;;10.43;2.83;;;10.10;99.90;;;;;;4192050;28;20432;-70
2021/03/29 05:02:42;;;;;;;10.77;3.25;;;10.00;99.90;;;;;;4189808;28;20033;-69
2021/03/29 05:04:42;;;;;;;7.60;2.60;;;10.00;99.90;;;;;;4183461;28;20039;-70
2021/03/29 05:06:43;;;;;;;8.52;2.40;;;10.00;99.90;;;;;;4186356;28;20041;-70
2021/03/29 05:08:44;;;;;;;10.05;3.03;;;10.00;99.90;;;;;;4187919;28;20056;-70
2021/03/29 05:10:44;;;;;;;9.77;3.00;;;10.00;99.90;;;;;;4184246;28;20041;-70
2021/03/29 05:12:45;;;;;;;9.15;3.17;;;10.00;99.90;;;;;;4185774;28;20044;-70
2021/03/29 05:14:46;;;;;;;7.47;2.92;;;10.00;99.90;;;;;;4184832;28;20036;-70
2021/03/29 05:16:47;;;;;;;6.78;2.83;;;10.00;99.90;;;;;;4187499;28;20151;-69
2021/03/29 05:18:48;;;;;;;6.13;2.40;;;10.00;99.90;;;;;;4186682;28;20082;-69
2021/03/29 05:20:49;;;;;;;6.80;2.80;;;10.00;99.90;;;;;;4188575;28;20075;-70
2021/03/29 05:22:50;;;;;;;7.43;2.83;;;10.00;99.90;;;;;;4179949;28;20082;-70
2021/03/29 05:24:50;;;;;;;7.15;2.60;;;10.00;99.90;;;;;;4187244;28;20508;-70
2021/03/29 05:26:52;;;;;;;8.07;2.55;;;10.00;99.90;;;;;;4184171;28;20041;-70
2021/03/29 05:28:52;;;;;;;14.55;3.10;;;10.00;99.90;;;;;;4187466;28;20056;-70
2021/03/29 05:30:53;;;;;;;7.90;2.80;;;10.00;99.90;;;;;;4188966;28;20032;-70
2021/03/29 05:32:54;;;;;;;10.05;2.97;;;10.00;99.90;;;;;;4184779;28;20048;-70
2021/03/29 05:34:57;;;;;;;12.27;4.03;;;10.00;99.90;;;;;;4182209;28;20037;-69
2021/03/29 05:36:58;;;;;;;9.95;3.25;;;10.00;99.90;;;;;;4184415;28;20048;-70
2021/03/29 05:38:59;;;;;;;10.15;2.90;;;10.00;99.90;;;;;;4188205;28;20036;-70
2021/03/29 05:41:00;;;;;;;6.45;2.42;;;10.00;99.90;;;;;;4178322;28;20033;-70
2021/03/29 05:43:01;;;;;;;7.20;2.67;;;10.00;99.90;;;;;;4184106;28;20049;-70
2021/03/29 05:45:07;;;;;;;10.30;2.92;;;10.00;99.90;;;;;;4186890;28;20041;-70
2021/03/29 05:47:08;;;;;;;8.88;2.90;;;10.00;99.90;;;;;;4190842;28;20032;-69
2021/03/29 05:49:09;;;;;;;8.27;2.67;;;10.00;99.90;;;;;;4176174;28;20499;-70
2021/03/29 05:51:11;;;;;;;9.18;3.00;;;10.00;99.90;;;;;;4185553;28;20515;-70
2021/03/29 05:53:11;;;;;;;10.50;3.55;;;9.90;99.90;;;;;;4189514;28;20488;-70
2021/03/29 05:55:15;;;;;;;7.20;2.55;;;10.00;99.90;;;;;;4188519;28;20032;-70
2021/03/29 05:57:17;;;;;;;5.95;2.65;;;10.00;99.90;;;;;;4184671;28;20055;-70
2021/03/29 06:00:00;;;;;;;7.65;2.55;;;10.00;99.90;;;;;;4183106;28;20075;-70
2021/03/29 06:01:48;;;;;;;6.47;2.30;;;10.00;99.90;;;;;;4185829;28;20040;-70
2021/03/29 06:03:51;;;;;;;10.60;2.60;;;10.00;99.90;;;;;;4187961;28;20051;-70
2021/03/29 06:05:59;;;;;;;7.18;2.72;;;10.10;99.90;;;;;;4187661;28;20381;-70
2021/03/29 06:08:00;;;;;;;9.90;3.08;;;10.10;99.90;;;;;;4189153;28;20044;-70
2021/03/29 06:10:09;;;;;;;9.35;2.97;;;10.10;99.90;;;;;;4189616;28;20039;-70
2021/03/29 06:12:12;;;;;;;7.82;2.88;;;10.20;99.90;;;;;;4187435;28;20562;-70
2021/03/29 06:14:17;;;;;;;10.35;2.60;;;10.20;99.90;;;;;;4184885;28;20037;-70
2021/03/29 06:16:17;;;;;;;6.72;2.63;;;10.20;99.90;;;;;;4187470;28;20028;-70
2021/03/29 06:18:18;;;;;;;3.80;2.00;;;10.20;99.90;;;;;;4185732;28;20485;-70
2021/03/29 06:20:19;;;;;;;6.82;2.40;;;10.30;99.90;;;;;;4188792;28;20048;-70
2021/03/29 06:22:40;;;;;;;6.35;2.45;;;10.30;99.90;;;;;;4188769;28;20387;-70
2021/03/29 06:24:59;;;;;;;10.43;2.92;;;10.30;99.90;;;;;;4186411;28;20030;-70
2021/03/29 06:27:03;;;;;;;4.93;2.15;;;10.30;99.90;;;;;;4188162;28;20090;-70
2021/03/29 06:29:17;;;;;;;5.68;2.42;;;10.40;99.90;;;;;;4180746;28;20036;-70
2021/03/29 06:31:32;;;;;;;7.13;2.40;;;10.40;99.90;;;;;;4188076;28;20033;-71
2021/03/29 06:33:45;;;;;;;8.95;2.40;;;10.50;99.90;;;;;;4184901;28;20028;-70
2021/03/29 06:35:52;;;;;;;9.95;2.50;;;10.50;99.90;;;;;;4171177;28;20041;-70
2021/03/29 06:38:01;;;;;;;5.78;2.33;;;10.50;99.90;;;;;;4172937;28;20029;-70
2021/03/29 06:40:07;;;;;;;8.60;2.65;;;10.60;99.90;;;;;;4173267;28;20485;-69
2021/03/29 06:42:08;;;;;;;5.85;2.20;;;10.70;99.90;;;;;;4171878;28;20493;-69
2021/03/29 06:44:43;;;;;;;10.15;2.45;;;10.70;99.90;;;;;;4166895;28;20493;-70
2021/03/29 06:46:43;;;;;;;12.85;2.78;;;10.80;99.90;;;;;;4188991;28;20032;-70
2021/03/29 06:48:44;;;;;;;12.02;3.20;;;10.90;99.90;;;;;;4188905;28;20041;-69
2021/03/29 06:50:45;;;;;;;8.23;2.13;;;10.90;99.90;;;;;;4196013;28;20390;-70
2021/03/29 06:52:45;;;;;;;6.05;2.15;;;11.00;99.90;;;;;;4197540;28;20707;-70
2021/03/29 06:54:46;;;;;;;7.22;2.80;;;11.00;99.90;;;;;;4195475;28;20058;-69
2021/03/29 06:56:51;;;;;;;7.35;2.83;;;11.10;99.90;;;;;;4196536;28;20036;-69
2021/03/29 06:58:54;;;;;;;8.00;2.80;;;11.20;99.90;;;;;;4200815;28;20036;-70
2021/03/29 07:00:56;;;;;;;5.78;2.33;;;11.30;99.90;;;;;;4197462;28;20047;-69
2021/03/29 07:03:07;;;;;;;10.55;2.67;;;11.30;99.90;;;;;;4187363;28;20029;-69
2021/03/29 07:05:09;;;;;;;7.38;2.60;;;11.40;99.90;;;;;;4188929;28;20035;-70
2021/03/29 07:07:10;;;;;;;8.35;3.00;;;11.50;99.90;;;;;;4184762;28;20032;-70
2021/03/29 07:09:11;;;;;;;10.15;2.60;;;11.60;99.90;;;;;;4184060;28;20032;-69
2021/03/29 07:11:14;;;;;;;9.02;2.63;;;11.60;99.90;;;;;;4186925;28;20040;-69
2021/03/29 07:13:17;;;;;;;7.82;2.55;;;11.60;99.90;;;;;;4166781;28;20044;-69
2021/03/29 07:15:18;;;;;;;8.52;2.40;;;11.70;99.90;;;;;;4187953;28;20058;-69
2021/03/29 07:17:22;;;;;;;9.82;3.03;;;11.80;99.90;;;;;;4185934;28;20027;-69
2021/03/29 07:19:23;;;;;;;8.85;2.80;;;11.90;99.90;;;;;;4181341;28;20132;-69
2021/03/29 07:21:24;;;;;;;7.53;2.13;;;11.90;99.90;;;;;;4180988;28;20037;-69
2021/03/29 07:23:25;;;;;;;8.00;2.30;;;12.00;99.90;;;;;;4182469;28;20052;-69
2021/03/29 07:25:36;;;;;;;8.98;2.70;;;12.10;99.90;;;;;;4181250;28;20040;-69
2021/03/29 07:27:44;;;;;;;8.02;2.58;;;12.20;99.90;;;;;;4186868;28;20040;-69
2021/03/29 07:29:48;;;;;;;7.13;2.38;;;12.20;99.90;;;;;;4180507;28;20043;-69
2021/03/29 07:31:51;;;;;;;9.50;2.80;;;12.30;99.90;;;;;;4197076;28;20043;-69
2021/03/29 07:33:54;;;;;;;9.55;2.95;;;12.30;99.90;;;;;;4188248;28;20045;-70
2021/03/29 07:35:56;;;;;;;5.95;2.22;;;12.30;99.90;;;;;;4187271;28;20056;-69
2021/03/29 07:37:57;;;;;;;8.13;3.25;;;12.40;99.90;;;;;;4191537;28;20486;-69
2021/03/29 07:40:18;;;;;;;9.30;2.00;;;12.40;99.90;;;;;;4189192;28;20133;-69
2021/03/29 07:42:25;;;;;;;6.85;2.45;;;12.50;99.90;;;;;;4167657;28;20047;-69
2021/03/29 07:44:25;;;;;;;6.68;2.80;;;12.60;99.90;;;;;;4169940;28;20123;-69
2021/03/29 07:46:47;;;;;;;6.53;2.38;;;12.60;99.90;;;;;;4175381;28;20025;-69
2021/03/29 07:48:48;;;;;;;5.13;2.45;;;12.70;99.90;;;;;;4171757;28;20033;-69
2021/03/29 07:50:49;;;;;;;8.73;2.30;;;12.80;99.90;;;;;;4173306;28;20033;-70
2021/03/29 07:52:54;;;;;;;10.13;2.47;;;12.80;99.90;;;;;;4173698;28;20041;-69
2021/03/29 07:54:57;;;;;;;7.68;2.60;;;12.90;99.90;;;;;;4174169;28;20032;-69
2021/03/29 07:56:58;;;;;;;9.18;2.30;;;13.00;99.90;;;;;;4173764;28;20171;-69
2021/03/29 07:58:59;;;;;;;8.30;2.97;;;13.10;99.90;;;;;;4174012;28;20053;-69
2021/03/29 08:01:04;;;;;;;5.78;2.55;;;13.10;99.90;;;;;;4173544;28;20059;-69
2021/03/29 08:03:11;;;;;;;5.75;2.38;;;13.30;99.90;;;;;;4174574;28;20029;-69
2021/03/29 08:05:15;;;;;;;7.65;2.80;;;13.40;99.90;;;;;;4183206;28;20029;-69
2021/03/29 08:07:39;;;;;;;7.68;2.45;;;13.50;99.90;;;;;;4185213;28;20357;-69
2021/03/29 08:09:43;;;;;;;9.65;2.58;;;13.60;99.90;;;;;;4173599;28;20389;-69
2021/03/29 08:11:52;;;;;;;9.55;2.67;;;13.70;99.90;;;;;;4173143;28;20029;-69
2021/03/29 08:13:56;;;;;;;9.50;2.65;;;13.70;99.90;;;;;;4169889;28;20025;-69
2021/03/29 08:16:11;;;;;;;9.57;2.45;;;13.80;99.90;;;;;;4170217;28;20350;-69
2021/03/29 08:18:12;;;;;;;11.13;2.83;;;14.00;99.90;;;;;;4155758;28;20405;-69
2021/03/29 08:20:32;;;;;;;7.72;2.10;;;14.10;99.90;;;;;;4164871;28;20025;-70
2021/03/29 08:22:32;;;;;;;7.20;2.47;;;14.20;99.90;;;;;;4172347;28;20040;-69
2021/03/29 08:24:40;;;;;;;6.60;2.42;;;14.40;99.90;;;;;;4173484;28;20041;-69
2021/03/29 08:26:41;;;;;;;9.15;2.45;;;14.40;99.90;;;;;;4169936;28;20131;-69
2021/03/29 08:29:07;;;;;;;8.65;2.60;;;14.60;99.90;;;;;;4171051;28;20654;-69
2021/03/29 08:31:07;;;;;;;5.25;2.20;;;14.60;99.90;;;;;;4173432;28;20638;-69
2021/03/29 08:33:09;;;;;;;11.50;3.17;;;14.70;99.90;;;;;;4174915;28;20041;-69
2021/03/29 08:35:11;;;;;;;6.53;2.35;;;14.70;99.90;;;;;;4167185;28;20113;-69
2021/03/29 08:37:18;;;;;;;9.40;2.28;;;14.80;99.90;;;;;;4175494;28;20049;-69
2021/03/29 08:39:19;;;;;;;7.05;2.30;;;14.90;99.90;;;;;;4160695;28;20049;-69
2021/03/29 08:41:21;;;;;;;7.70;2.63;;;15.00;99.90;;;;;;4174557;28;20472;-69
2021/03/29 08:43:22;;;;;;;4.25;1.60;;;15.20;99.90;;;;;;4174384;28;20030;-69
2021/03/29 08:45:27;;;;;;;7.20;2.38;;;15.30;99.90;;;;;;4169969;28;20036;-70
2021/03/29 08:47:28;;;;;;;8.90;2.45;;;15.40;99.90;;;;;;4174132;28;20066;-69
2021/03/29 08:49:29;;;;;;;9.85;2.78;;;15.60;99.90;;;;;;4173458;28;20056;-69
2021/03/29 08:51:30;;;;;;;8.27;2.55;;;15.60;99.90;;;;;;4171901;28;20086;-69
2021/03/29 08:53:30;;;;;;;6.57;2.20;;;15.70;99.90;;;;;;4177393;28;20522;-69
2021/03/29 08:55:33;;;;;;;8.35;2.20;;;15.80;99.90;;;;;;4174372;28;20036;-69
2021/03/29 08:57:34;;;;;;;5.68;2.22;;;15.90;99.90;;;;;;4177215;28;20114;-69
2021/03/29 08:59:34;;;;;;;5.88;1.98;;;16.00;99.90;;;;;;4158868;28;20041;-69
2021/03/29 09:01:36;;;;;;;11.70;2.33;;;16.10;99.90;;;;;;4177907;28;20614;-69
2021/03/29 09:03:36;;;;;;;9.07;2.40;;;16.20;99.50;;;;;;4175757;28;20037;-70
2021/03/29 09:05:37;;;;;;;4.43;2.00;;;16.20;96.10;;;;;;4176929;28;20044;-69
2021/03/29 09:07:44;;;;;;;6.95;2.35;;;16.40;96.50;;;;;;4176873;28;20029;-69
2021/03/29 09:09:45;;;;;;;21.88;3.40;;;16.40;95.40;;;;;;4159215;28;20030;-69
2021/03/29 09:11:47;;;;;;;6.72;2.45;;;16.50;94.40;;;;;;4175170;28;20048;-69
2021/03/29 09:13:52;;;;;;;5.00;1.95;;;16.50;90.80;;;;;;4179654;28;20068;-69
2021/03/29 09:15:53;;;;;;;7.70;1.75;;;16.60;89.10;;;;;;4175218;28;20456;-69
2021/03/29 09:17:55;;;;;;;7.70;2.13;;;16.70;90.40;;;;;;4176548;28;20086;-69
2021/03/29 09:19:56;;;;;;;7.05;2.33;;;16.80;88.20;;;;;;4176754;28;20072;-69
2021/03/29 09:21:59;;;;;;;5.65;1.85;;;16.90;84.80;;;;;;4178065;28;20706;-69
2021/03/29 09:24:00;;;;;;;;;;;16.90;85.50;;;;;;4176696;28;20037;-69
2021/03/29 09:26:02;;;;;;;4.97;2.03;;;17.00;79.20;;;;;;4159867;28;20368;-69
2021/03/29 09:28:33;;;;;;;4.47;1.70;;;17.00;79.20;;;;;;4176812;28;20079;-69
2021/03/29 09:30:34;;;;;;;4.68;2.00;;;17.10;82.60;;;;;;4184796;28;20396;-69
2021/03/29 09:32:37;;;;;;;4.88;1.77;;;17.20;80.00;;;;;;4191355;28;20021;-69
2021/03/29 09:34:38;;;;;;;5.03;1.70;;;17.30;83.30;;;;;;4196921;28;20062;-69
2021/03/29 09:36:39;;;;;;;7.10;2.10;;;17.40;78.30;;;;;;4191251;28;20059;-70
2021/03/29 09:38:45;;;;;;;4.65;1.52;;;17.60;76.60;;;;;;4199008;28;20055;-69
2021/03/29 09:40:45;;;;;;;2.97;1.40;;;17.70;75.30;;;;;;4200243;28;20032;-69
2021/03/29 09:42:49;;;;;;;3.17;1.50;;;17.70;76.30;;;;;;4198062;28;20843;-69
2021/03/29 09:44:58;;;;;;;3.88;1.70;;;17.80;70.50;;;;;;4201710;28;20024;-69
2021/03/29 09:47:09;;;;;;;7.55;2.05;;;17.80;69.20;;;;;;4204423;28;20021;-69
2021/03/29 09:49:11;;;;;;;6.00;2.10;;;17.80;67.80;;;;;;4205620;28;20028;-69
2021/03/29 09:51:18;;;;;;;7.43;1.90;;;17.80;65.40;;;;;;4191918;28;20473;-69
2021/03/29 09:53:23;;;;;;;3.90;1.75;;;17.80;63.70;;;;;;4195680;28;20259;-69
2021/03/29 09:55:40;;;;;;;6.82;2.33;;;17.80;65.10;;;;;;4197283;28;20716;-69
2021/03/29 09:57:43;;;;;;;6.15;2.10;;;17.90;64.50;;;;;;4188907;28;20089;-70
2021/03/29 09:59:44;;;;;;;4.13;1.65;;;17.90;63.10;;;;;;4188367;28;20036;-69
2021/03/29 10:01:45;;;;;;;8.15;2.75;;;18.00;64.10;;;;;;4190879;28;20045;-70
2021/03/29 10:03:56;;;;;;;5.72;2.10;;;18.10;63.10;;;;;;4189068;28;20035;-70
2021/03/29 10:05:57;;;;;;;5.03;1.83;;;18.10;62.80;;;;;;4191514;28;20526;-69
2021/03/29 10:07:58;;;;;;;6.38;2.13;;;18.10;60.90;;;;;;4186655;28;20029;-69
2021/03/29 10:10:04;;;;;;;4.65;1.50;;;18.10;60.10;;;;;;4190700;28;20385;-70
2021/03/29 10:12:05;;;;;;;7.30;2.00;;;18.20;61.50;;;;;;4182664;28;20052;-69
2021/03/29 10:14:06;;;;;;;3.78;1.50;;;18.20;58.30;;;;;;4184281;28;20587;-69
2021/03/29 10:16:27;;;;;;;6.87;2.03;;;18.20;57.50;;;;;;4186371;28;20068;-70
2021/03/29 10:18:31;;;;;;;7.93;2.38;;;18.40;57.30;;;;;;4188899;28;20262;-70
2021/03/29 10:20:35;;;;;;;4.75;1.73;;;18.30;58.20;;;;;;4181147;28;20041;-69
2021/03/29 10:22:37;;;;;;;4.18;1.58;;;18.30;56.10;;;;;;4179926;28;20144;-69
2021/03/29 10:25:21;;;;;;;6.70;1.83;;;18.40;57.70;;;;;;4174992;28;20053;-70
2021/03/29 10:27:22;;;;;;;5.13;1.50;;;18.40;55.80;;;;;;4149910;28;20489;-69
2021/03/29 10:29:37;;;;;;;4.38;1.80;;;18.50;56.20;;;;;;4178699;28;20034;-70
2021/03/29 10:31:37;;;;;;;4.45;1.50;;;18.60;57.30;;;;;;4174815;28;20025;-69
2021/03/29 10:33:38;;;;;;;9.13;1.60;;;18.60;55.70;;;;;;4175825;28;20040;-69
2021/03/29 10:35:40;;;;;;;9.68;1.60;;;18.60;54.30;;;;;;4176790;28;20025;-69
2021/03/29 10:37:41;;;;;;;6.25;1.92;;;18.60;53.90;;;;;;4177155;28;20377;-69
2021/03/29 10:39:44;;;;;;;4.07;1.38;;;18.70;53.80;;;;;;4178563;28;20504;-69
2021/03/29 10:41:44;;;;;;;2.72;1.35;;;18.70;53.80;;;;;;4185651;28;20043;-69
2021/03/29 10:43:45;;;;;;;4.57;1.52;;;18.80;54.40;;;;;;4184880;28;20032;-69